Norfolk, Virginia
Traffic Map
Current Weather Conditions
Norfolk, Virginia
Clear
Clear
-4°
Feels Like: -4°
Wind Chill: -4° Ceiling: Unl
Heat Index: -4° Visibility: 10mi
Dew Point: -8° Wind: 0mph
Humidity: 72% Direction: ° ()
Pressure: 30.29in Gusts: 0mph
Raw Report DataKORF 011151Z AUTO 00000KT 10SM CLR M04/M08 A3029 RMK AO2 SLP257 T10391083 11017 21044 51008 TSNO $
Traffic Incident Summary
Active as of:
Severity:
Category:
InformationThere was an issue retrieving the traffic information for this location. Please try a different location or try again shortly.
Advertisements
Track Severe Weather on mobile